createdAt,value
2018-10-16T00:01:57.928Z,1.90
2018-10-16T00:05:00.503Z,1.80
2018-10-16T00:07:58.285Z,1.93
2018-10-16T00:10:56.683Z,1.90
2018-10-16T00:13:53.414Z,1.87
2018-10-16T00:16:49.941Z,1.97
2018-10-16T00:19:46.450Z,1.50
2018-10-16T00:22:44.005Z,1.90
2018-10-16T00:25:40.520Z,2.10
2018-10-16T00:28:36.845Z,1.73
2018-10-16T00:31:34.393Z,1.70
2018-10-16T00:34:30.928Z,1.60
2018-10-16T00:37:27.445Z,1.73
2018-10-16T00:40:24.993Z,1.70
2018-10-16T00:43:22.349Z,1.70
2018-10-16T00:46:19.086Z,1.80
2018-10-16T00:49:15.383Z,1.77
2018-10-16T00:52:12.127Z,1.93
2018-10-16T00:55:08.839Z,1.83
2018-10-16T00:58:05.569Z,1.70
2018-10-16T01:01:02.951Z,1.80
2018-10-16T01:03:59.858Z,1.90
2018-10-16T01:06:57.007Z,1.90
2018-10-16T01:09:53.514Z,1.60
2018-10-16T01:12:50.033Z,1.60
2018-10-16T01:15:46.789Z,1.90
2018-10-16T01:18:44.328Z,1.40
2018-10-16T01:21:41.056Z,1.80
2018-10-16T01:24:38.198Z,1.80
2018-10-16T01:27:35.781Z,1.80
2018-10-16T01:30:32.079Z,1.70
2018-10-16T01:33:28.589Z,1.80
2018-10-16T01:36:26.149Z,1.87
2018-10-16T01:39:22.879Z,1.60
2018-10-16T01:42:19.417Z,2.00
2018-10-16T01:45:16.967Z,1.83
2018-10-16T01:48:13.503Z,1.57
2018-10-16T01:51:10.217Z,1.70
2018-10-16T01:54:07.361Z,1.70
2018-10-16T01:57:05.330Z,1.90
2018-10-16T02:00:02.900Z,1.73
2018-10-16T02:02:59.413Z,1.70
2018-10-16T02:05:55.792Z,1.60
2018-10-16T02:08:52.440Z,1.90
2018-10-16T02:11:50.042Z,2.20
2018-10-16T02:14:46.820Z,1.70
2018-10-16T02:17:45.352Z,1.83
2018-10-16T02:20:41.735Z,1.77
2018-10-16T02:23:38.162Z,1.67
2018-10-16T02:26:34.696Z,1.83
2018-10-16T02:29:31.222Z,2.07
2018-10-16T02:32:27.742Z,1.67
2018-10-16T02:35:24.242Z,2.00
2018-10-16T02:38:20.762Z,1.83
2018-10-16T02:41:17.497Z,1.80
2018-10-16T02:44:15.896Z,1.60
2018-10-16T02:47:13.255Z,1.87
2018-10-16T02:50:09.978Z,1.87
2018-10-16T02:53:06.278Z,2.10
2018-10-16T02:56:03.238Z,1.60
2018-10-16T02:58:59.718Z,1.77
2018-10-16T03:01:56.255Z,2.03
2018-10-16T03:04:53.196Z,2.37
2018-10-16T03:07:49.711Z,2.00
2018-10-16T03:10:46.018Z,1.90
2018-10-16T03:13:42.739Z,1.60
2018-10-16T03:16:40.093Z,2.03
2018-10-16T03:19:36.607Z,1.70
2018-10-16T03:22:33.142Z,1.93
2018-10-16T03:25:29.650Z,1.80
2018-10-16T03:28:26.209Z,1.90
2018-10-16T03:31:23.732Z,1.90
2018-10-16T03:34:20.465Z,2.00
2018-10-16T03:37:16.975Z,1.80
2018-10-16T03:40:13.287Z,1.83
2018-10-16T03:43:10.018Z,1.90
2018-10-16T03:46:07.367Z,1.60
2018-10-16T03:49:04.937Z,2.23
2018-10-16T03:52:03.553Z,2.03
2018-10-16T03:55:00.482Z,1.90
2018-10-16T03:57:57.195Z,1.70
2018-10-16T04:00:53.931Z,1.80
2018-10-16T04:03:51.324Z,1.70
2018-10-16T04:06:48.249Z,1.93
2018-10-16T04:09:45.502Z,1.77
2018-10-16T04:12:43.344Z,1.70
2018-10-16T04:15:39.839Z,1.80
2018-10-16T04:18:36.811Z,2.10
2018-10-16T04:21:43.146Z,2.00
2018-10-16T04:24:40.074Z,1.90
2018-10-16T04:27:36.418Z,1.80
2018-10-16T04:30:34.355Z,1.83
2018-10-16T04:33:32.790Z,1.57
2018-10-16T04:36:29.478Z,2.07
2018-10-16T04:39:25.810Z,2.47
2018-10-16T04:42:22.333Z,1.57
2018-10-16T04:45:19.707Z,1.70
2018-10-16T04:48:16.408Z,1.90
2018-10-16T04:51:13.755Z,1.60
2018-10-16T04:54:10.274Z,1.63
2018-10-16T04:57:07.003Z,1.90
2018-10-16T05:00:03.569Z,1.67
2018-10-16T05:03:00.038Z,1.63
2018-10-16T05:05:56.747Z,1.80
2018-10-16T05:08:53.264Z,1.80
2018-10-16T05:11:53.982Z,1.67
2018-10-16T05:14:51.527Z,1.80
2018-10-16T05:17:48.250Z,1.90
2018-10-16T05:20:46.655Z,1.67
2018-10-16T05:23:44.232Z,1.90
2018-10-16T05:26:41.584Z,1.70
2018-10-16T05:29:38.290Z,1.87
2018-10-16T05:32:34.441Z,1.90
2018-10-16T05:35:32.177Z,1.97
2018-10-16T05:38:28.490Z,1.80
2018-10-16T05:41:26.258Z,1.60
2018-10-16T05:44:22.992Z,2.00
2018-10-16T05:47:19.512Z,1.53
2018-10-16T05:50:17.720Z,1.87
2018-10-16T05:53:14.423Z,1.90
2018-10-16T05:56:15.750Z,1.97
2018-10-16T05:59:12.691Z,1.77
2018-10-16T06:02:08.986Z,1.63
2018-10-16T06:05:05.921Z,1.80
2018-10-16T06:08:03.948Z,1.50
2018-10-16T06:11:11.064Z,1.80
2018-10-16T06:14:08.631Z,1.80
2018-10-16T06:17:05.594Z,1.50
2018-10-16T06:20:03.132Z,1.70
2018-10-16T06:23:00.686Z,1.50
2018-10-16T06:25:57.210Z,1.57
2018-10-16T06:28:54.792Z,1.70
2018-10-16T06:31:51.304Z,1.60
2018-10-16T06:34:47.818Z,1.63
2018-10-16T06:37:44.953Z,1.50
2018-10-16T06:40:41.767Z,1.73
2018-10-16T06:43:39.283Z,1.47
2018-10-16T06:46:37.114Z,1.70
2018-10-16T06:49:35.414Z,1.57
2018-10-16T06:52:32.158Z,1.70
2018-10-16T06:55:28.451Z,1.70
2018-10-16T06:58:25.193Z,2.00
2018-10-16T07:01:22.533Z,2.17
2018-10-16T07:04:19.260Z,1.80
2018-10-16T07:07:17.597Z,1.70
2018-10-16T07:10:14.180Z,1.43
2018-10-16T07:13:11.741Z,1.80
2018-10-16T07:16:08.484Z,1.77
2018-10-16T07:19:05.836Z,1.70
2018-10-16T07:22:03.187Z,1.73
2018-10-16T07:24:59.708Z,2.97
2018-10-16T07:27:56.647Z,2.03
2018-10-16T07:30:52.935Z,1.90
2018-10-16T07:33:49.667Z,1.70
2018-10-16T07:36:46.398Z,1.67
2018-10-16T07:39:42.941Z,1.60
2018-10-16T07:42:39.229Z,1.70
2018-10-16T07:45:37.000Z,2.07
2018-10-16T07:48:34.207Z,1.90
2018-10-16T07:51:31.905Z,2.07
2018-10-16T07:54:28.431Z,2.20
2018-10-16T07:57:25.270Z,2.03
2018-10-16T08:00:23.569Z,1.60
2018-10-16T08:03:22.171Z,1.97
2018-10-16T08:06:20.347Z,2.10
2018-10-16T08:09:19.850Z,1.67
2018-10-16T08:12:17.359Z,2.20
2018-10-16T08:15:14.077Z,3.60
2018-10-16T08:18:11.429Z,2.20
2018-10-16T08:21:09.223Z,2.30
2018-10-16T08:24:06.571Z,2.30
2018-10-16T08:27:03.494Z,2.30
2018-10-16T08:30:01.119Z,2.03
2018-10-16T08:32:58.664Z,2.40
2018-10-16T08:35:55.182Z,2.50
2018-10-16T08:39:09.628Z,2.33
2018-10-16T08:42:12.839Z,2.50
2018-10-16T08:45:27.536Z,2.40
2018-10-16T08:48:30.733Z,2.30
2018-10-16T08:51:34.553Z,2.20
2018-10-16T08:54:31.925Z,2.37
2018-10-16T08:57:29.479Z,2.53
2018-10-16T09:00:25.578Z,2.57
2018-10-16T09:03:22.098Z,2.17
2018-10-16T09:06:20.287Z,2.53
2018-10-16T09:09:18.195Z,2.70
2018-10-16T09:12:14.572Z,2.47
2018-10-16T09:15:11.100Z,2.50
2018-10-16T09:18:07.610Z,2.37
2018-10-16T09:21:05.192Z,2.40
2018-10-16T09:24:01.712Z,2.50
2018-10-16T09:26:58.409Z,2.50
2018-10-16T09:29:56.817Z,2.63
2018-10-16T09:32:54.301Z,2.13
2018-10-16T09:35:50.901Z,2.50
2018-10-16T09:38:47.415Z,2.30
2018-10-16T09:41:43.716Z,2.33
2018-10-16T09:44:40.664Z,2.33
2018-10-16T09:47:38.028Z,2.70
2018-10-16T09:50:34.731Z,2.33
2018-10-16T09:53:31.040Z,2.40
2018-10-16T09:56:28.619Z,2.57
2018-10-16T09:59:24.914Z,2.63
2018-10-16T10:02:21.638Z,3.97
2018-10-16T10:05:19.648Z,2.30
2018-10-16T10:08:16.360Z,2.40
2018-10-16T10:11:12.555Z,2.50
2018-10-16T10:14:10.072Z,2.50
2018-10-16T10:17:08.683Z,2.40
2018-10-16T10:20:05.120Z,2.50
2018-10-16T10:23:01.656Z,2.70
2018-10-16T10:25:58.383Z,2.60
2018-10-16T10:28:54.844Z,2.70
2018-10-16T10:31:51.222Z,2.73
2018-10-16T10:34:47.748Z,3.00
2018-10-16T10:37:44.452Z,2.50
2018-10-16T10:40:40.987Z,2.80
2018-10-16T10:43:37.506Z,2.73
2018-10-16T10:46:35.031Z,2.30
2018-10-16T10:49:31.580Z,2.70
2018-10-16T10:52:28.103Z,3.00
2018-10-16T10:55:25.036Z,2.70
2018-10-16T10:58:21.542Z,2.57
2018-10-16T11:01:18.281Z,2.53
2018-10-16T11:04:15.416Z,2.57
2018-10-16T11:07:12.081Z,2.60
2018-10-16T11:10:09.294Z,2.73
2018-10-16T11:13:06.233Z,2.70
2018-10-16T11:16:04.628Z,2.53
2018-10-16T11:19:01.167Z,2.70
2018-10-16T11:21:58.706Z,2.10
2018-10-16T11:24:55.784Z,2.70
2018-10-16T11:27:52.993Z,2.80
2018-10-16T11:30:49.530Z,2.57
2018-10-16T11:33:45.834Z,3.53
2018-10-16T11:36:42.558Z,2.50
2018-10-16T11:39:38.875Z,2.70
2018-10-16T11:42:35.616Z,2.77
2018-10-16T11:45:32.940Z,2.50
2018-10-16T11:48:30.720Z,2.87
2018-10-16T11:51:27.015Z,2.60
2018-10-16T11:54:23.979Z,2.63
2018-10-16T11:57:21.195Z,2.50
2018-10-16T12:00:18.035Z,2.60
2018-10-16T12:03:14.349Z,2.77
2018-10-16T12:06:11.771Z,2.93
2018-10-16T12:09:08.448Z,2.70
2018-10-16T12:12:04.784Z,2.53
2018-10-16T12:15:02.327Z,2.93
2018-10-16T12:18:04.272Z,2.73
2018-10-16T12:21:09.638Z,2.80
2018-10-16T12:24:06.563Z,2.50
2018-10-16T12:27:04.102Z,2.53
2018-10-16T12:30:01.599Z,2.60
2018-10-16T12:32:57.938Z,2.60
2018-10-16T12:35:55.688Z,3.10
2018-10-16T12:38:52.229Z,3.13
2018-10-16T12:41:48.938Z,2.80
2018-10-16T12:44:45.444Z,2.50
2018-10-16T12:47:43.238Z,2.43
2018-10-16T12:50:39.741Z,2.33
2018-10-16T12:53:36.484Z,2.60
2018-10-16T12:56:33.236Z,2.87
2018-10-16T12:59:29.703Z,2.80
2018-10-16T13:02:26.432Z,2.70
2018-10-16T13:05:24.059Z,2.60
2018-10-16T13:08:20.312Z,2.63
2018-10-16T13:11:16.688Z,2.60
2018-10-16T13:14:13.202Z,2.63
2018-10-16T13:17:09.985Z,2.57
2018-10-16T13:20:07.448Z,2.60
2018-10-16T13:23:06.094Z,2.70
2018-10-16T13:26:03.468Z,2.60
2018-10-16T13:29:01.072Z,2.20
2018-10-16T13:31:58.447Z,2.80
2018-10-16T13:34:56.340Z,2.40
2018-10-16T13:37:54.758Z,3.10
2018-10-16T13:40:51.207Z,2.77
2018-10-16T13:43:47.760Z,2.43
2018-10-16T13:46:45.479Z,2.40
2018-10-16T13:49:42.854Z,2.63
2018-10-16T13:52:39.786Z,2.70
2018-10-16T13:55:37.132Z,3.17
2018-10-16T13:58:33.670Z,2.90
2018-10-16T14:01:31.011Z,2.63
2018-10-16T14:04:27.739Z,2.30
2018-10-16T14:07:24.051Z,2.60
2018-10-16T14:10:23.903Z,2.47
2018-10-16T14:13:21.279Z,2.60
2018-10-16T14:16:18.307Z,2.70
2018-10-16T14:19:15.577Z,2.13
2018-10-16T14:22:16.333Z,2.60
2018-10-16T14:25:14.655Z,2.40
2018-10-16T14:28:12.690Z,2.63
2018-10-16T14:31:10.950Z,2.67
2018-10-16T14:34:08.208Z,2.47
2018-10-16T14:37:04.898Z,2.67
2018-10-16T14:40:02.272Z,2.30
2018-10-16T14:43:00.847Z,2.50
2018-10-16T14:45:58.476Z,2.70
2018-10-16T14:48:55.986Z,2.60
2018-10-16T14:51:52.327Z,2.57
2018-10-16T14:54:49.863Z,2.60
2018-10-16T14:57:49.752Z,2.50
2018-10-16T15:00:46.847Z,2.87
2018-10-16T15:03:44.638Z,2.77
2018-10-16T15:06:41.977Z,2.47
2018-10-16T15:09:43.135Z,2.60
2018-10-16T15:12:41.296Z,2.50
2018-10-16T15:15:38.876Z,2.67
2018-10-16T15:18:35.596Z,2.90
2018-10-16T15:21:32.913Z,2.63
2018-10-16T15:24:29.665Z,2.70
2018-10-16T15:27:27.013Z,2.70
2018-10-16T15:30:24.564Z,2.40
2018-10-16T15:33:20.897Z,2.60
2018-10-16T15:36:17.502Z,3.07
2018-10-16T15:39:14.347Z,2.70
2018-10-16T15:42:10.746Z,2.70
2018-10-16T15:45:07.378Z,2.80
2018-10-16T15:48:04.184Z,2.80
2018-10-16T15:51:01.589Z,2.67
2018-10-16T15:53:58.391Z,2.30
2018-10-16T15:56:54.816Z,2.70
2018-10-16T15:59:51.694Z,2.40
2018-10-16T16:02:49.411Z,2.63
2018-10-16T16:05:47.821Z,2.60
2018-10-16T16:08:44.146Z,2.40
2018-10-16T16:11:41.455Z,2.67
2018-10-16T16:14:38.548Z,2.50
2018-10-16T16:17:35.750Z,2.00
2018-10-16T16:20:32.283Z,2.37
2018-10-16T16:23:30.048Z,2.93
2018-10-16T16:26:26.700Z,2.37
2018-10-16T16:29:23.972Z,2.60
2018-10-16T16:32:21.780Z,2.80
2018-10-16T16:35:18.215Z,2.47
2018-10-16T16:38:15.035Z,2.40
2018-10-16T16:41:12.563Z,2.43
2018-10-16T16:44:11.148Z,2.80
2018-10-16T16:47:08.562Z,2.47
2018-10-16T16:50:06.924Z,2.60
2018-10-16T16:53:04.467Z,2.50
2018-10-16T16:56:01.270Z,2.87
2018-10-16T16:58:57.693Z,2.77
2018-10-16T17:01:54.194Z,2.87
2018-10-16T17:04:50.922Z,2.70
2018-10-16T17:07:48.476Z,2.60
2018-10-16T17:10:45.631Z,2.50
2018-10-16T17:13:46.529Z,2.40
2018-10-16T17:16:44.922Z,2.73
2018-10-16T17:19:42.266Z,2.87
2018-10-16T17:22:38.797Z,2.57
2018-10-16T17:25:35.833Z,2.60
2018-10-16T17:28:32.871Z,2.60
2018-10-16T17:31:29.616Z,2.43
2018-10-16T17:34:27.305Z,2.97
2018-10-16T17:37:24.926Z,2.90
2018-10-16T17:40:24.398Z,2.50
2018-10-16T17:43:20.902Z,2.60
2018-10-16T17:46:17.625Z,2.63
2018-10-16T17:49:15.180Z,2.60
2018-10-16T17:52:12.986Z,2.83
2018-10-16T17:55:10.513Z,2.70
2018-10-16T17:58:07.521Z,3.10
2018-10-16T18:01:05.850Z,2.70
2018-10-16T18:04:02.392Z,2.83
2018-10-16T18:06:59.940Z,2.50
2018-10-16T18:09:57.282Z,2.70
2018-10-16T18:12:55.065Z,2.63
2018-10-16T18:15:52.455Z,2.50
2018-10-16T18:18:49.148Z,2.70
2018-10-16T18:21:45.886Z,2.60
2018-10-16T18:24:42.384Z,2.60
2018-10-16T18:27:40.165Z,2.80
2018-10-16T18:30:36.888Z,3.17
2018-10-16T18:33:34.242Z,2.70
2018-10-16T18:36:30.753Z,3.10
2018-10-16T18:39:28.123Z,2.97
2018-10-16T18:42:25.900Z,2.80
2018-10-16T18:45:23.438Z,3.27
2018-10-16T18:48:19.966Z,3.07
2018-10-16T18:51:17.555Z,3.40
2018-10-16T18:54:14.325Z,2.83
2018-10-16T18:57:12.905Z,2.80
2018-10-16T19:00:09.598Z,3.30
2018-10-16T19:03:05.844Z,2.90
2018-10-16T19:06:04.912Z,3.40
2018-10-16T19:09:02.151Z,3.10
2018-10-16T19:11:59.666Z,3.10
2018-10-16T19:14:55.961Z,2.87
2018-10-16T19:17:53.714Z,2.87
2018-10-16T19:20:50.905Z,2.83
2018-10-16T19:23:48.840Z,2.70
2018-10-16T19:26:45.560Z,3.47
2018-10-16T19:29:42.098Z,2.80
2018-10-16T19:32:39.427Z,3.37
2018-10-16T19:35:36.168Z,3.53
2018-10-16T19:38:32.713Z,3.20
2018-10-16T19:41:30.668Z,3.40
2018-10-16T19:44:29.070Z,6.83
2018-10-16T19:47:25.799Z,3.83
2018-10-16T19:50:22.100Z,3.10
2018-10-16T19:53:18.817Z,3.27
2018-10-16T19:56:16.386Z,3.27
2018-10-16T19:59:13.939Z,3.00
2018-10-16T20:02:11.710Z,3.17
2018-10-16T20:05:08.657Z,3.17
2018-10-16T20:08:05.369Z,3.20
2018-10-16T20:11:02.110Z,3.40
2018-10-16T20:13:58.895Z,3.67
2018-10-16T20:16:56.616Z,3.27
2018-10-16T20:19:54.167Z,3.50
2018-10-16T20:22:50.899Z,4.60
2018-10-16T20:25:47.203Z,3.37
2018-10-16T20:28:43.723Z,3.47
2018-10-16T20:31:41.244Z,3.30
2018-10-16T20:34:38.225Z,3.67
2018-10-16T20:37:35.517Z,3.90
2018-10-16T20:40:32.502Z,3.83
2018-10-16T20:43:29.870Z,3.77
2018-10-16T20:46:27.438Z,4.33
2018-10-16T20:49:23.962Z,3.77
2018-10-16T20:52:21.924Z,4.03
2018-10-16T20:55:18.309Z,3.70
2018-10-16T20:58:15.002Z,3.83
2018-10-16T21:01:12.569Z,4.20
2018-10-16T21:04:09.054Z,3.67
2018-10-16T21:07:07.259Z,3.57
2018-10-16T21:10:03.542Z,3.83
2018-10-16T21:13:00.275Z,3.03
2018-10-16T21:15:58.040Z,3.80
2018-10-16T21:18:54.611Z,3.47
2018-10-16T21:21:51.078Z,3.47
2018-10-16T21:24:47.599Z,3.43
2018-10-16T21:27:44.333Z,3.10
2018-10-16T21:30:40.887Z,3.37
2018-10-16T21:33:37.375Z,3.33
2018-10-16T21:36:34.109Z,3.43
2018-10-16T21:39:30.817Z,3.00
2018-10-16T21:42:27.290Z,3.40
2018-10-16T21:45:24.067Z,3.40
2018-10-16T21:48:21.612Z,3.33
2018-10-16T21:51:18.552Z,3.13
2018-10-16T21:54:14.862Z,2.83
2018-10-16T21:57:11.590Z,3.60
2018-10-16T22:00:08.325Z,3.53
2018-10-16T22:03:06.092Z,3.20
2018-10-16T22:06:02.414Z,3.10
2018-10-16T22:08:59.126Z,3.20
2018-10-16T22:11:55.643Z,3.17
2018-10-16T22:14:53.426Z,3.43
2018-10-16T22:17:50.786Z,3.37
2018-10-16T22:20:47.508Z,3.13
2018-10-16T22:23:46.320Z,3.40
2018-10-16T22:26:43.056Z,3.20
2018-10-16T22:29:39.633Z,3.30
2018-10-16T22:32:38.398Z,3.03
2018-10-16T22:35:34.658Z,3.03
2018-10-16T22:38:31.230Z,2.60
2018-10-16T22:41:28.766Z,3.23
2018-10-16T22:44:25.309Z,3.10
2018-10-16T22:47:22.010Z,4.00
2018-10-16T22:50:20.876Z,3.37
2018-10-16T22:53:18.389Z,2.93
2018-10-16T22:56:15.962Z,3.10
2018-10-16T22:59:14.625Z,2.90
2018-10-16T23:02:11.508Z,3.33
2018-10-16T23:05:10.127Z,3.37
2018-10-16T23:08:06.676Z,3.00
2018-10-16T23:11:03.011Z,2.93
2018-10-16T23:14:00.706Z,2.83
2018-10-16T23:16:57.258Z,2.70
2018-10-16T23:19:53.781Z,3.43
2018-10-16T23:22:50.273Z,2.80
2018-10-16T23:25:46.808Z,3.20
2018-10-16T23:28:44.354Z,3.13
2018-10-16T23:31:42.104Z,2.97
2018-10-16T23:34:38.849Z,2.97
2018-10-16T23:37:35.573Z,2.70
2018-10-16T23:40:32.295Z,3.00
2018-10-16T23:43:29.931Z,2.67
2018-10-16T23:46:27.657Z,3.00
2018-10-16T23:49:24.209Z,2.93
2018-10-16T23:52:21.714Z,2.70
2018-10-16T23:55:19.487Z,3.03
2018-10-16T23:58:15.742Z,2.90
